createdAt,value
2019-01-30T00:00:58.728Z,-1.58
2019-01-30T00:10:54.700Z,-1.70
2019-01-30T00:13:25.043Z,-1.71
2019-01-30T00:19:27.163Z,-1.85
2019-01-30T00:21:57.470Z,-1.80
2019-01-30T00:24:27.837Z,-1.80
2019-01-30T00:26:58.299Z,-1.89
2019-01-30T00:34:07.815Z,-1.98
2019-01-30T00:36:38.157Z,-2.09
2019-01-30T00:48:00.105Z,-2.04
2019-01-30T00:50:26.189Z,-2.10
2019-01-30T00:52:56.543Z,-2.19
2019-01-30T00:55:27.593Z,-2.25
2019-01-30T00:57:58.018Z,-2.26
2019-01-30T01:00:28.501Z,-2.27
2019-01-30T01:02:58.993Z,-2.22
2019-01-30T01:06:29.874Z,-2.20
2019-01-30T01:08:59.326Z,-2.22
2019-01-30T01:12:44.656Z,-2.26
2019-01-30T01:15:15.465Z,-2.19
2019-01-30T01:17:46.018Z,-2.25
2019-01-30T01:20:16.627Z,-2.26
2019-01-30T01:22:47.586Z,-2.24
2019-01-30T01:25:18.184Z,-2.19
2019-01-30T01:31:16.163Z,-2.29
2019-01-30T01:33:46.515Z,-2.37
2019-01-30T01:36:16.905Z,-2.38
2019-01-30T01:38:47.318Z,-2.32
2019-01-30T01:41:17.603Z,-2.24
2019-01-30T01:43:47.901Z,-2.32
2019-01-30T01:46:18.313Z,-2.42
2019-01-30T02:00:21.213Z,-2.42
2019-01-30T02:02:51.515Z,-2.49
2019-01-30T02:05:23.084Z,-2.46
2019-01-30T02:07:53.658Z,-2.51
2019-01-30T02:10:25.634Z,-2.46
2019-01-30T02:12:56.065Z,-2.39
2019-01-30T02:15:26.491Z,-2.40
2019-01-30T02:17:56.928Z,-2.35
2019-01-30T02:20:32.679Z,-2.37
2019-01-30T02:23:03.045Z,-2.37
2019-01-30T02:25:33.409Z,-2.32
2019-01-30T02:28:03.820Z,-2.31
2019-01-30T02:30:34.696Z,-2.35
2019-01-30T02:37:02.876Z,-2.30
2019-01-30T02:39:33.143Z,-2.11
2019-01-30T02:42:03.413Z,-1.55
2019-01-30T02:46:01.609Z,-1.47
2019-01-30T02:49:17.721Z,-1.58
2019-01-30T02:52:10.969Z,-1.85
2019-01-30T02:54:41.414Z,-2.02
2019-01-30T02:57:11.674Z,-2.11
2019-01-30T02:59:42.027Z,-2.11
2019-01-30T03:02:56.642Z,-2.11
2019-01-30T03:05:27.119Z,-2.05
2019-01-30T03:07:57.778Z,-2.13
2019-01-30T03:10:28.269Z,-2.14
2019-01-30T03:12:58.650Z,-2.12
2019-01-30T03:15:29.110Z,-2.21
2019-01-30T03:17:59.839Z,-2.21
2019-01-30T03:20:30.353Z,-2.22
2019-01-30T03:23:00.711Z,-2.15
2019-01-30T03:25:31.168Z,-2.27
2019-01-30T03:28:02.082Z,-2.24
2019-01-30T03:30:33.257Z,-2.22
2019-01-30T03:33:03.662Z,-2.27
2019-01-30T03:35:34.087Z,-2.16
2019-01-30T03:38:04.780Z,-2.17
2019-01-30T03:40:35.158Z,-2.17
2019-01-30T03:43:05.469Z,-2.20
2019-01-30T03:45:36.257Z,-2.23
2019-01-30T03:48:06.629Z,-2.30
2019-01-30T03:50:37.127Z,-2.31
2019-01-30T03:53:07.449Z,-2.24
2019-01-30T03:55:37.759Z,-2.31
2019-01-30T03:58:08.172Z,-2.25
2019-01-30T04:00:38.481Z,-2.33
2019-01-30T04:03:08.868Z,-2.35
2019-01-30T04:05:39.298Z,-2.34
2019-01-30T04:08:10.119Z,-2.35
2019-01-30T04:10:40.526Z,-2.28
2019-01-30T04:13:10.944Z,-2.24
2019-01-30T04:15:41.456Z,-2.23
2019-01-30T04:18:11.955Z,-2.15
2019-01-30T04:20:42.431Z,-2.19
2019-01-30T04:23:12.989Z,-2.15
2019-01-30T04:25:43.312Z,-2.10
2019-01-30T04:28:13.673Z,-2.09
2019-01-30T04:30:44.183Z,-2.13
2019-01-30T04:33:14.590Z,-2.14
2019-01-30T04:35:45.044Z,-2.15
2019-01-30T04:38:15.465Z,-2.10
2019-01-30T04:40:45.847Z,-2.09
2019-01-30T04:43:16.155Z,-2.07
2019-01-30T04:45:46.587Z,-2.05
2019-01-30T04:54:43.889Z,-1.94
2019-01-30T04:57:14.342Z,-1.95
2019-01-30T04:59:44.667Z,-1.89
2019-01-30T05:02:15.023Z,-1.86
2019-01-30T05:04:45.313Z,-1.82
2019-01-30T05:07:15.554Z,-1.76
2019-01-30T05:09:46.170Z,-1.67
2019-01-30T05:12:16.530Z,-1.63
2019-01-30T05:14:46.867Z,-1.68
2019-01-30T05:17:17.316Z,-1.64
2019-01-30T05:19:47.601Z,-1.66
2019-01-30T05:22:17.981Z,-1.62
2019-01-30T05:24:48.490Z,-1.55
2019-01-30T05:27:19.293Z,-1.47
2019-01-30T05:29:49.814Z,-1.50
2019-01-30T05:35:55.006Z,-1.45
2019-01-30T05:38:25.334Z,-1.43
2019-01-30T05:40:55.708Z,-1.36
2019-01-30T05:43:26.413Z,-1.40
2019-01-30T05:45:56.837Z,-1.33
2019-01-30T05:48:27.316Z,-1.38
2019-01-30T05:50:57.773Z,-1.35
2019-01-30T05:53:28.225Z,-1.26
2019-01-30T05:55:58.662Z,-1.27
2019-01-30T05:58:30.045Z,-1.22
2019-01-30T06:03:56.487Z,-1.30
2019-01-30T06:06:26.806Z,-1.33
2019-01-30T06:08:57.184Z,-1.32
2019-01-30T06:11:27.508Z,-1.41
2019-01-30T06:13:57.838Z,-1.31
2019-01-30T06:16:28.316Z,-1.23
2019-01-30T06:18:58.640Z,-1.32
2019-01-30T06:21:28.951Z,-1.31
2019-01-30T06:23:59.455Z,-1.22
2019-01-30T06:26:30.163Z,-1.28
2019-01-30T06:29:00.585Z,-1.25
2019-01-30T06:31:31.394Z,-1.25
2019-01-30T06:34:01.718Z,-1.26
2019-01-30T06:36:32.210Z,-1.33
2019-01-30T06:49:36.158Z,-1.35
2019-01-30T06:57:03.243Z,-1.34
2019-01-30T06:59:14.007Z,-1.32
2019-01-30T07:01:44.498Z,-1.28
2019-01-30T07:04:14.913Z,-1.25
2019-01-30T07:06:45.316Z,-1.12
2019-01-30T07:09:15.662Z,-1.07
2019-01-30T07:11:45.976Z,-1.10
2019-01-30T07:14:16.328Z,-1.03
2019-01-30T07:20:39.596Z,-0.89
2019-01-30T07:23:10.509Z,-0.76
2019-01-30T07:25:40.886Z,-0.54
2019-01-30T07:28:11.295Z,-0.36
2019-01-30T07:30:42.591Z,-0.11
2019-01-30T07:36:51.220Z,0.72
2019-01-30T07:42:51.038Z,1.44
2019-01-30T07:45:23.027Z,2.29
2019-01-30T07:47:53.343Z,2.76
2019-01-30T07:50:23.760Z,2.51
2019-01-30T07:52:54.164Z,2.37
2019-01-30T07:56:10.980Z,2.54
2019-01-30T07:58:41.477Z,2.90
2019-01-30T08:01:18.824Z,3.17
2019-01-30T08:04:00.684Z,2.66
2019-01-30T08:06:52.600Z,2.24
2019-01-30T08:09:40.851Z,1.95
2019-01-30T08:12:26.987Z,1.81
2019-01-30T08:15:23.092Z,1.92
2019-01-30T08:17:36.171Z,2.21
2019-01-30T08:20:09.007Z,2.24
2019-01-30T08:22:41.297Z,2.14
2019-01-30T08:26:12.300Z,1.84
2019-01-30T08:28:42.798Z,1.89
2019-01-30T08:34:14.510Z,1.87
2019-01-30T08:36:44.951Z,1.91
2019-01-30T08:39:15.571Z,2.31
2019-01-30T08:42:41.207Z,2.76
2019-01-30T08:45:25.923Z,3.02
2019-01-30T08:57:43.169Z,2.62
2019-01-30T09:00:16.397Z,2.56
2019-01-30T09:05:22.715Z,2.29
2019-01-30T09:14:08.200Z,2.01
2019-01-30T09:16:39.322Z,1.77
2019-01-30T09:19:09.656Z,1.77
2019-01-30T09:21:40.146Z,1.71
2019-01-30T09:24:10.597Z,1.69
2019-01-30T09:26:41.030Z,1.83
2019-01-30T09:29:11.534Z,2.06
2019-01-30T09:31:42.522Z,2.40
2019-01-30T09:34:12.846Z,2.69
2019-01-30T09:36:43.695Z,3.00
2019-01-30T09:39:34.671Z,3.34
2019-01-30T09:42:05.206Z,3.38
2019-01-30T09:44:55.390Z,3.09
2019-01-30T09:47:26.269Z,3.26
2019-01-30T09:52:34.358Z,3.41
2019-01-30T09:58:36.115Z,3.56
2019-01-30T10:01:25.421Z,3.53
2019-01-30T10:03:55.836Z,3.80
2019-01-30T10:06:26.169Z,3.56
2019-01-30T10:08:56.463Z,3.45
2019-01-30T10:11:26.894Z,3.39
2019-01-30T10:13:57.488Z,3.59
2019-01-30T10:16:28.772Z,3.79
2019-01-30T10:18:59.089Z,4.01
2019-01-30T10:21:29.508Z,4.08
2019-01-30T10:23:59.890Z,3.93
2019-01-30T10:26:30.320Z,3.87
2019-01-30T10:29:00.812Z,3.93
2019-01-30T10:32:14.001Z,3.76
2019-01-30T10:34:45.187Z,3.56
2019-01-30T10:37:42.672Z,3.48
2019-01-30T10:40:15.877Z,3.49
2019-01-30T10:49:36.917Z,3.49
2019-01-30T10:52:09.537Z,3.67
2019-01-30T10:54:39.911Z,3.89
2019-01-30T10:57:12.838Z,4.01
2019-01-30T10:59:43.175Z,4.16
2019-01-30T11:02:14.255Z,4.12
2019-01-30T11:04:44.561Z,4.24
2019-01-30T11:07:15.147Z,4.21
2019-01-30T11:09:45.669Z,4.06
2019-01-30T11:12:16.094Z,4.11
2019-01-30T11:14:46.832Z,4.19
2019-01-30T11:20:30.866Z,4.30
2019-01-30T11:23:01.952Z,4.51
2019-01-30T11:25:34.297Z,4.57
2019-01-30T11:28:05.441Z,4.73
2019-01-30T11:30:35.946Z,4.99
2019-01-30T11:33:06.445Z,4.78
2019-01-30T11:35:37.069Z,4.79
2019-01-30T11:38:09.009Z,4.88
2019-01-30T11:40:39.900Z,4.81
2019-01-30T11:43:10.252Z,5.03
2019-01-30T11:45:42.640Z,5.06
2019-01-30T11:48:13.011Z,5.27
2019-01-30T11:53:54.554Z,5.42
2019-01-30T11:56:25.064Z,5.29
2019-01-30T11:58:55.704Z,5.22
2019-01-30T12:01:26.123Z,5.37
2019-01-30T12:03:56.524Z,5.60
2019-01-30T12:06:26.940Z,5.70
2019-01-30T12:08:57.394Z,5.51
2019-01-30T12:11:27.713Z,5.42
2019-01-30T12:13:58.525Z,5.26
2019-01-30T12:16:29.452Z,5.26
2019-01-30T12:19:00.167Z,5.27
2019-01-30T12:21:53.475Z,5.05
2019-01-30T12:24:23.999Z,4.88
2019-01-30T12:26:54.423Z,4.89
2019-01-30T12:29:26.018Z,4.99
2019-01-30T12:31:56.521Z,4.86
2019-01-30T12:34:28.245Z,4.56
2019-01-30T12:36:59.319Z,4.35
2019-01-30T12:39:29.848Z,4.32
2019-01-30T12:42:00.347Z,4.29
2019-01-30T12:47:46.495Z,4.20
2019-01-30T12:50:17.141Z,4.13
2019-01-30T12:52:47.456Z,4.05
2019-01-30T12:55:38.138Z,4.03
2019-01-30T12:58:08.431Z,4.11
2019-01-30T13:00:42.123Z,3.96
2019-01-30T13:03:12.357Z,3.94
2019-01-30T13:05:42.608Z,3.98
2019-01-30T13:08:15.383Z,3.85
2019-01-30T13:10:46.125Z,3.67
2019-01-30T13:13:16.422Z,3.56
2019-01-30T13:15:46.807Z,3.42
2019-01-30T13:18:18.643Z,3.35
2019-01-30T13:24:18.930Z,3.28
2019-01-30T13:26:49.286Z,3.21
2019-01-30T13:29:19.623Z,3.19
2019-01-30T13:31:50.109Z,3.17
2019-01-30T13:34:20.697Z,3.21
2019-01-30T13:36:51.148Z,3.25
2019-01-30T13:39:21.644Z,3.30
2019-01-30T13:41:52.774Z,3.27
2019-01-30T13:44:24.160Z,3.36
2019-01-30T13:46:54.589Z,3.35
2019-01-30T13:49:25.245Z,3.33
2019-01-30T13:52:14.300Z,3.40
2019-01-30T13:54:44.799Z,3.50
2019-01-30T13:57:15.213Z,3.56
2019-01-30T13:59:45.665Z,3.53
2019-01-30T14:02:16.034Z,3.50
2019-01-30T14:04:59.527Z,3.53
2019-01-30T14:07:26.644Z,3.51
2019-01-30T14:09:57.042Z,3.61
2019-01-30T14:12:27.370Z,3.72
2019-01-30T14:14:57.628Z,3.81
2019-01-30T14:17:37.095Z,3.81
2019-01-30T14:20:08.390Z,3.79
2019-01-30T14:22:38.847Z,3.89
2019-01-30T14:25:10.328Z,3.99
2019-01-30T14:27:40.751Z,4.06
2019-01-30T14:33:42.948Z,4.23
2019-01-30T14:36:14.200Z,4.28
2019-01-30T14:41:40.497Z,4.24
2019-01-30T14:44:10.997Z,4.03
2019-01-30T14:46:41.401Z,4.08
2019-01-30T14:49:11.933Z,4.10
2019-01-30T14:51:42.784Z,4.09
2019-01-30T14:54:13.339Z,4.01
2019-01-30T14:56:43.768Z,3.97
2019-01-30T14:59:14.351Z,3.93
2019-01-30T15:01:45.168Z,3.80
2019-01-30T15:04:15.826Z,3.77
2019-01-30T15:06:46.363Z,3.59
2019-01-30T15:09:16.780Z,3.53
2019-01-30T15:11:47.475Z,3.41
2019-01-30T15:14:17.949Z,3.32
2019-01-30T15:16:48.366Z,3.25
2019-01-30T15:19:18.822Z,3.18
2019-01-30T15:21:49.360Z,3.04
2019-01-30T15:24:20.025Z,3.00
2019-01-30T15:26:50.552Z,2.94
2019-01-30T15:29:20.893Z,2.90
2019-01-30T15:31:58.698Z,2.85
2019-01-30T15:34:29.074Z,2.80
2019-01-30T15:36:59.496Z,2.81
2019-01-30T15:39:29.858Z,2.82
2019-01-30T15:42:00.678Z,2.85
2019-01-30T15:44:31.061Z,2.86
2019-01-30T15:47:01.510Z,2.85
2019-01-30T15:49:31.934Z,2.85
2019-01-30T15:52:02.411Z,2.89
2019-01-30T15:54:33.210Z,2.86
2019-01-30T15:57:03.965Z,2.92
2019-01-30T15:59:34.610Z,2.87
2019-01-30T16:04:42.382Z,2.88
2019-01-30T16:07:12.692Z,2.85
2019-01-30T16:09:42.955Z,2.88
2019-01-30T16:12:13.331Z,2.91
2019-01-30T16:14:43.740Z,2.90
2019-01-30T16:17:14.392Z,2.92
2019-01-30T16:19:44.873Z,2.91
2019-01-30T16:22:15.231Z,2.91
2019-01-30T16:24:46.201Z,2.92
2019-01-30T16:27:16.517Z,2.90
2019-01-30T16:29:47.003Z,2.87
2019-01-30T16:32:17.620Z,2.89
2019-01-30T16:34:48.405Z,2.89
2019-01-30T16:37:18.864Z,2.86
2019-01-30T16:43:21.582Z,2.84
2019-01-30T16:45:52.139Z,2.84
2019-01-30T16:48:22.421Z,2.75
2019-01-30T16:50:52.875Z,2.82
2019-01-30T16:53:23.430Z,2.81
2019-01-30T16:55:53.896Z,2.85
2019-01-30T16:58:24.316Z,2.80
2019-01-30T17:00:54.645Z,2.79
2019-01-30T17:03:25.075Z,2.77
2019-01-30T17:06:06.684Z,2.76
2019-01-30T17:08:27.563Z,2.71
2019-01-30T17:10:57.867Z,2.66
2019-01-30T17:13:28.375Z,2.66
2019-01-30T17:16:01.037Z,2.64
2019-01-30T17:18:31.487Z,2.64
2019-01-30T17:21:01.825Z,2.59
2019-01-30T17:23:32.144Z,2.63
2019-01-30T17:26:21.234Z,2.61
2019-01-30T17:28:51.486Z,2.62
2019-01-30T17:31:40.899Z,2.61
2019-01-30T17:34:11.248Z,2.64
2019-01-30T17:36:41.655Z,2.68
2019-01-30T17:39:12.578Z,2.66
2019-01-30T17:41:43.257Z,2.67
2019-01-30T17:44:13.668Z,2.63
2019-01-30T17:46:44.126Z,2.70
2019-01-30T17:49:33.207Z,2.70
2019-01-30T17:52:03.598Z,2.72
2019-01-30T17:54:33.936Z,2.71
2019-01-30T17:57:04.317Z,2.67
2019-01-30T17:59:34.633Z,2.78
2019-01-30T18:04:43.449Z,2.81
2019-01-30T18:07:14.492Z,2.86
2019-01-30T18:09:44.825Z,2.88
2019-01-30T18:12:15.236Z,2.91
2019-01-30T18:14:46.742Z,2.93
2019-01-30T18:17:17.208Z,2.90
2019-01-30T18:19:47.683Z,2.86
2019-01-30T18:22:18.047Z,2.80
2019-01-30T18:24:49.293Z,2.73
2019-01-30T18:27:20.507Z,2.76
2019-01-30T18:29:50.994Z,2.69
2019-01-30T18:32:21.327Z,2.69
2019-01-30T18:37:46.592Z,2.64
2019-01-30T18:40:18.806Z,2.61
2019-01-30T18:43:27.982Z,2.59
2019-01-30T18:48:35.359Z,2.63
2019-01-30T18:51:26.391Z,2.62
2019-01-30T18:53:56.740Z,2.65
2019-01-30T18:56:38.793Z,2.69
2019-01-30T18:59:09.247Z,2.73
2019-01-30T19:01:39.767Z,2.70
2019-01-30T19:04:10.175Z,2.75
2019-01-30T19:06:51.702Z,2.73
2019-01-30T19:09:13.377Z,2.80
2019-01-30T19:11:43.686Z,2.82
2019-01-30T19:14:14.585Z,2.84
2019-01-30T19:16:44.829Z,2.87
2019-01-30T19:19:15.100Z,2.87
2019-01-30T19:22:04.214Z,2.91
2019-01-30T19:24:34.585Z,2.97
2019-01-30T19:27:05.100Z,3.05
2019-01-30T19:29:35.509Z,3.02
2019-01-30T19:32:06.116Z,3.02
2019-01-30T19:34:36.505Z,3.14
2019-01-30T19:37:07.597Z,3.15
2019-01-30T19:39:38.074Z,3.18
2019-01-30T19:42:08.515Z,3.14
2019-01-30T19:44:39.213Z,3.19
2019-01-30T19:47:09.626Z,3.13
2019-01-30T19:49:40.137Z,3.19
2019-01-30T19:52:10.597Z,3.20
2019-01-30T19:54:41.281Z,3.18
2019-01-30T19:57:23.066Z,3.20
2019-01-30T19:59:53.615Z,3.19
2019-01-30T20:02:24.154Z,3.08
2019-01-30T20:04:54.567Z,3.29
2019-01-30T20:07:25.126Z,3.27
2019-01-30T20:09:56.236Z,3.33
2019-01-30T20:12:26.597Z,3.27
2019-01-30T20:15:16.047Z,3.31
2019-01-30T20:17:46.377Z,3.35
2019-01-30T20:20:55.978Z,3.35
2019-01-30T20:23:26.432Z,3.29
2019-01-30T20:28:43.993Z,3.42
2019-01-30T20:31:16.866Z,3.33
2019-01-30T20:33:47.341Z,3.40
2019-01-30T20:36:17.749Z,3.39
2019-01-30T20:38:48.133Z,3.44
2019-01-30T20:41:18.549Z,3.43
2019-01-30T20:44:08.156Z,3.36
2019-01-30T20:50:14.688Z,3.27
2019-01-30T20:52:44.975Z,3.33
2019-01-30T20:55:35.448Z,3.23
2019-01-30T20:58:26.080Z,3.29
2019-01-30T21:00:56.496Z,3.32
2019-01-30T21:03:26.847Z,3.19
2019-01-30T21:05:57.274Z,3.20
2019-01-30T21:08:27.726Z,3.15
2019-01-30T21:10:58.231Z,3.07
2019-01-30T21:13:28.658Z,2.98
2019-01-30T21:15:59.048Z,3.02
2019-01-30T21:18:29.382Z,2.98
2019-01-30T21:23:37.099Z,2.88
2019-01-30T21:26:07.550Z,2.89
2019-01-30T21:28:38.025Z,2.95
2019-01-30T21:31:09.263Z,3.02
2019-01-30T21:33:39.798Z,3.03
2019-01-30T21:36:10.210Z,3.04
2019-01-30T21:38:40.618Z,3.05
2019-01-30T21:41:11.113Z,3.10
2019-01-30T21:43:41.796Z,3.14
2019-01-30T21:46:30.792Z,3.31
2019-01-30T21:49:01.105Z,3.31
2019-01-30T21:51:31.326Z,3.31
2019-01-30T21:54:01.627Z,3.30
2019-01-30T21:56:32.063Z,3.24
2019-01-30T21:59:02.550Z,3.22
2019-01-30T22:01:33.042Z,3.27
2019-01-30T22:04:03.401Z,3.23
2019-01-30T22:06:33.876Z,3.42
2019-01-30T22:09:04.648Z,3.33
2019-01-30T22:11:35.354Z,3.35
2019-01-30T22:14:05.830Z,3.28
2019-01-30T22:16:36.254Z,3.22
2019-01-30T22:19:06.741Z,3.25
2019-01-30T22:21:37.106Z,3.23
2019-01-30T22:24:07.677Z,3.34
2019-01-30T22:26:38.179Z,3.30
2019-01-30T22:29:08.805Z,3.40
2019-01-30T22:31:39.143Z,3.36
2019-01-30T22:34:09.664Z,3.34
2019-01-30T22:36:40.126Z,3.29
2019-01-30T22:39:11.155Z,3.31
2019-01-30T22:41:41.879Z,3.27
2019-01-30T22:44:12.308Z,3.18
2019-01-30T22:46:42.715Z,3.36
2019-01-30T22:49:13.159Z,3.42
2019-01-30T22:51:43.569Z,3.23
2019-01-30T22:54:14.113Z,3.29
2019-01-30T22:56:44.528Z,3.34
2019-01-30T22:59:14.922Z,3.25
2019-01-30T23:02:06.405Z,3.22
2019-01-30T23:05:14.093Z,3.07
2019-01-30T23:08:23.388Z,3.16
2019-01-30T23:14:32.746Z,3.06
2019-01-30T23:17:40.505Z,2.99
2019-01-30T23:20:33.878Z,3.07
2019-01-30T23:47:41.097Z,2.98
2019-01-30T23:54:44.587Z,2.87
2019-01-30T23:56:41.927Z,2.91
2019-01-30T23:59:50.066Z,2.98
